createdAt,value
2022-12-01T00:00:24.461Z,98903.34
2022-12-01T00:02:54.101Z,98893.94
2022-12-01T00:05:23.623Z,98897.34
2022-12-01T00:07:52.899Z,98893.91
2022-12-01T00:10:28.250Z,98891.38
2022-12-01T00:13:03.078Z,98893.91
2022-12-01T00:15:38.011Z,98893.94
2022-12-01T00:18:07.682Z,98888.78
2022-12-01T00:20:38.308Z,98898.25
2022-12-01T00:23:09.042Z,98905.09
2022-12-01T00:25:39.271Z,98899.06
2022-12-01T00:28:09.234Z,98901.66
2022-12-01T00:30:38.965Z,98907.69
2022-12-01T00:33:08.569Z,98901.66
2022-12-01T00:35:37.985Z,98899.13
2022-12-01T00:38:07.455Z,98899.97
2022-12-01T00:40:36.871Z,98891.44
2022-12-01T00:43:07.158Z,98900.00
2022-12-01T00:45:36.920Z,98901.72
2022-12-01T00:48:06.730Z,98902.56
2022-12-01T00:50:36.455Z,98906.03
2022-12-01T00:53:05.833Z,98896.63
2022-12-01T00:55:35.267Z,98894.91
2022-12-01T00:58:05.656Z,98902.63
2022-12-01T01:00:35.783Z,98899.19
2022-12-01T01:03:05.262Z,98908.66
2022-12-01T01:05:41.322Z,98906.94
2022-12-01T01:08:12.597Z,98912.94
2022-12-01T01:10:47.702Z,98901.78
2022-12-01T01:13:17.430Z,98914.66
2022-12-01T01:15:47.276Z,98908.72
2022-12-01T01:18:17.209Z,98913.00
2022-12-01T01:20:46.708Z,98916.41
2022-12-01T01:23:19.263Z,98921.56
2022-12-01T01:25:49.071Z,98925.84
2022-12-01T01:28:18.531Z,98932.72
2022-12-01T01:30:48.551Z,98938.72
2022-12-01T01:33:18.119Z,98931.84
2022-12-01T01:35:47.653Z,98935.28
2022-12-01T01:38:17.700Z,98938.72
2022-12-01T01:40:48.758Z,98936.13
2022-12-01T01:43:41.917Z,98933.56
2022-12-01T01:46:17.740Z,98937.00
2022-12-01T01:48:55.752Z,98939.56
2022-12-01T01:51:43.153Z,98951.56
2022-12-01T01:54:30.557Z,98945.56
2022-12-01T01:57:06.386Z,98953.28
2022-12-01T01:59:44.771Z,98962.72
2022-12-01T02:02:16.733Z,98967.00
2022-12-01T02:04:55.166Z,98963.59
2022-12-01T02:07:25.251Z,98967.00
2022-12-01T02:09:56.891Z,98963.59
2022-12-01T02:12:39.873Z,98969.56
2022-12-01T02:15:35.219Z,98974.72
2022-12-01T02:18:14.009Z,98973.00
2022-12-01T02:21:11.778Z,98964.44
2022-12-01T02:23:51.082Z,98974.72
2022-12-01T02:27:07.632Z,98972.97
2022-12-01T02:29:41.013Z,98984.13
2022-12-01T02:32:34.891Z,98987.53
2022-12-01T02:35:34.965Z,98993.53
2022-12-01T02:38:28.761Z,98999.56
2022-12-01T02:41:24.523Z,99002.13
2022-12-01T02:44:18.704Z,99003.81
2022-12-01T02:47:16.383Z,99008.94
2022-12-01T02:49:54.348Z,99011.53
2022-12-01T02:52:26.145Z,99014.13
2022-12-01T02:54:57.118Z,99010.69
2022-12-01T02:57:28.975Z,99010.66
2022-12-01T03:00:00.273Z,99000.34
2022-12-01T03:02:30.840Z,98997.75
2022-12-01T03:05:07.724Z,98997.66
2022-12-01T03:07:42.164Z,98999.38
2022-12-01T03:10:33.353Z,98997.56
2022-12-01T03:13:40.220Z,99008.66
2022-12-01T03:16:23.945Z,98995.72
2022-12-01T03:19:04.682Z,99006.00
2022-12-01T03:21:43.738Z,99003.28
2022-12-01T03:24:25.542Z,98999.78
2022-12-01T03:26:59.557Z,99001.34
2022-12-01T03:29:39.956Z,99007.28
2022-12-01T03:32:13.979Z,98990.88
2022-12-01T03:34:51.092Z,98991.59
2022-12-01T03:37:45.379Z,98990.59
2022-12-01T03:40:23.832Z,98996.50
2022-12-01T03:43:09.961Z,98993.81
2022-12-01T03:46:16.811Z,98998.84
2022-12-01T03:48:47.112Z,98989.50
2022-12-01T03:51:25.574Z,98990.91
2022-12-01T03:54:09.629Z,98998.59
2022-12-01T03:56:53.912Z,99007.25
2022-12-01T03:59:29.112Z,99006.25
2022-12-01T04:01:59.631Z,99009.63
2022-12-01T04:04:29.749Z,99013.81
2022-12-01T04:06:59.090Z,99019.81
2022-12-01T04:09:28.683Z,99022.31
2022-12-01T04:12:16.090Z,99024.75
2022-12-01T04:14:45.596Z,99028.97
2022-12-01T04:17:16.089Z,99034.00
2022-12-01T04:19:46.023Z,99028.75
2022-12-01T04:22:15.535Z,99035.56
2022-12-01T04:24:45.559Z,99031.09
2022-12-01T04:27:15.797Z,99031.72
2022-12-01T04:29:45.101Z,99032.50
2022-12-01T04:32:15.271Z,99032.31
2022-12-01T04:34:44.914Z,99035.59
2022-12-01T04:37:15.034Z,99031.09
2022-12-01T04:39:44.832Z,99027.47
2022-12-01T04:42:14.114Z,99019.50
2022-12-01T04:44:43.740Z,99017.63
2022-12-01T04:47:13.000Z,99021.72
2022-12-01T04:49:42.386Z,99015.63
2022-12-01T04:52:12.069Z,99021.38
2022-12-01T04:54:41.513Z,99023.84
2022-12-01T04:57:11.355Z,99027.06
2022-12-01T04:59:40.906Z,99027.94
2022-12-01T05:02:10.843Z,99028.00
2022-12-01T05:04:42.658Z,99029.44
2022-12-01T05:07:12.408Z,99027.59
2022-12-01T05:09:43.601Z,99027.19
2022-12-01T05:12:13.277Z,99034.19
2022-12-01T05:14:42.798Z,99028.88
2022-12-01T05:17:12.061Z,99026.81
2022-12-01T05:19:59.765Z,99030.94
2022-12-01T05:23:03.295Z,99029.09
2022-12-01T05:25:20.305Z,99022.84
2022-12-01T05:27:49.839Z,99020.88
2022-12-01T05:30:21.156Z,99020.66
2022-12-01T05:32:52.892Z,99018.78
2022-12-01T05:35:22.577Z,99009.84
2022-12-01T05:37:52.134Z,99004.44
2022-12-01T05:40:21.729Z,99001.63
2022-12-01T05:42:55.669Z,99006.00
2022-12-01T05:45:25.789Z,99001.25
2022-12-01T05:48:02.109Z,98998.28
2022-12-01T05:50:33.203Z,98992.91
2022-12-01T05:53:02.975Z,98991.34
2022-12-01T05:55:35.510Z,98987.59
2022-12-01T05:58:05.295Z,98981.44
2022-12-01T06:00:37.564Z,98978.75
2022-12-01T06:03:10.447Z,98977.03
2022-12-01T06:05:49.790Z,98969.00
2022-12-01T06:08:20.118Z,98968.47
2022-12-01T06:10:49.782Z,98962.78
2022-12-01T06:13:19.173Z,98956.97
2022-12-01T06:16:01.175Z,98950.72
2022-12-01T06:18:36.230Z,98943.91
2022-12-01T06:21:08.128Z,98941.25
2022-12-01T06:23:37.906Z,98942.09
2022-12-01T06:26:07.713Z,98941.78
2022-12-01T06:28:37.662Z,98935.75
2022-12-01T06:31:07.896Z,98932.00
2022-12-01T06:33:37.863Z,98920.38
2022-12-01T06:36:08.760Z,98914.94
2022-12-01T06:38:42.098Z,98912.38
2022-12-01T06:41:12.015Z,98905.25
2022-12-01T06:43:41.730Z,98900.84
2022-12-01T06:46:11.217Z,98896.28
2022-12-01T06:48:41.471Z,98895.31
2022-12-01T06:51:11.296Z,98892.38
2022-12-01T06:53:44.805Z,98887.00
2022-12-01T06:56:14.701Z,98887.56
2022-12-01T06:58:45.472Z,98884.63
2022-12-01T07:01:15.421Z,98877.41
2022-12-01T07:03:45.444Z,98867.28
2022-12-01T07:06:14.922Z,98864.09
2022-12-01T07:08:44.765Z,98869.28
2022-12-01T07:11:16.935Z,98864.59
2022-12-01T07:13:47.052Z,98862.94
2022-12-01T07:16:16.902Z,98855.84
2022-12-01T07:18:46.641Z,98852.47
2022-12-01T07:21:17.275Z,98837.16
2022-12-01T07:23:47.633Z,98825.00
2022-12-01T07:26:19.764Z,98820.53
2022-12-01T07:28:49.368Z,98814.59
2022-12-01T07:31:20.967Z,98809.56
2022-12-01T07:33:50.777Z,98806.94
2022-12-01T07:36:21.395Z,98793.69
2022-12-01T07:38:51.020Z,98805.97
2022-12-01T07:41:21.492Z,98800.38
2022-12-01T07:43:53.232Z,98796.13
2022-12-01T07:46:26.525Z,98790.66
2022-12-01T07:48:57.848Z,98784.47
2022-12-01T07:51:28.233Z,98787.03
2022-12-01T07:53:57.817Z,98771.19
2022-12-01T07:56:29.583Z,98767.47
2022-12-01T07:58:59.291Z,98765.03
2022-12-01T08:01:29.541Z,98761.13
2022-12-01T08:04:01.023Z,98765.25
2022-12-01T08:06:30.905Z,98749.94
2022-12-01T08:09:00.643Z,98749.91
2022-12-01T08:11:31.802Z,98749.69
2022-12-01T08:14:03.045Z,98745.53
2022-12-01T08:16:32.975Z,98742.78
2022-12-01T08:19:02.744Z,98733.03
2022-12-01T08:21:32.746Z,98734.41
2022-12-01T08:24:02.247Z,98724.03
2022-12-01T08:26:32.714Z,98718.84
2022-12-01T08:29:02.429Z,98709.13
2022-12-01T08:31:34.576Z,98713.69
2022-12-01T08:34:08.224Z,98719.44
2022-12-01T08:36:38.627Z,98711.38
2022-12-01T08:39:10.533Z,98706.63
2022-12-01T08:41:40.393Z,98696.13
2022-12-01T08:44:12.381Z,98693.53
2022-12-01T08:46:42.079Z,98697.19
2022-12-01T08:49:12.101Z,98689.28
2022-12-01T08:51:43.051Z,98682.22
2022-12-01T08:54:14.001Z,98679.41
2022-12-01T08:56:45.962Z,98675.81
2022-12-01T08:59:16.067Z,98678.69
2022-12-01T09:01:55.097Z,98673.91
2022-12-01T09:04:29.062Z,98664.16
2022-12-01T09:07:01.102Z,98658.09
2022-12-01T09:09:31.002Z,98652.16
2022-12-01T09:12:00.919Z,98665.13
2022-12-01T09:14:30.657Z,98662.94
2022-12-01T09:17:00.224Z,98653.16
2022-12-01T09:19:30.068Z,98641.84
2022-12-01T09:22:00.082Z,98642.59
2022-12-01T09:24:29.867Z,98643.31
2022-12-01T09:27:00.812Z,98646.84
2022-12-01T09:29:30.629Z,98644.38
2022-12-01T09:32:01.818Z,98644.38
2022-12-01T09:34:33.623Z,98637.53
2022-12-01T09:37:03.480Z,98643.09
2022-12-01T09:39:33.434Z,98635.75
2022-12-01T09:42:19.373Z,98638.22
2022-12-01T09:44:57.203Z,98633.78
2022-12-01T09:47:36.466Z,98633.34
2022-12-01T09:50:26.364Z,98631.97
2022-12-01T09:53:13.263Z,98639.13
2022-12-01T09:55:42.672Z,98624.44
2022-12-01T09:58:22.815Z,98618.59
2022-12-01T10:00:56.337Z,98617.09
2022-12-01T10:03:31.540Z,98615.84
2022-12-01T10:06:45.533Z,98616.63
2022-12-01T10:09:49.773Z,98611.25
2022-12-01T10:12:32.035Z,98609.06
2022-12-01T10:15:10.081Z,98609.34
2022-12-01T10:18:20.777Z,98612.44
2022-12-01T10:21:28.965Z,98604.84
2022-12-01T10:24:22.686Z,98613.44
2022-12-01T10:26:58.928Z,98607.06
2022-12-01T10:29:49.935Z,98607.88
2022-12-01T10:32:27.484Z,98606.16
2022-12-01T10:34:57.110Z,98600.56
2022-12-01T10:37:31.766Z,98597.03
2022-12-01T10:40:01.525Z,98592.53
2022-12-01T10:42:42.975Z,98593.66
2022-12-01T10:45:37.191Z,98586.16
2022-12-01T10:48:23.885Z,98577.72
2022-12-01T10:50:58.868Z,98583.31
2022-12-01T10:53:35.015Z,98577.47
2022-12-01T10:56:23.368Z,98587.06
2022-12-01T10:58:58.717Z,98585.09
2022-12-01T11:01:33.170Z,98594.09
2022-12-01T11:04:31.015Z,98583.41
2022-12-01T11:07:01.319Z,98589.38
2022-12-01T11:09:32.942Z,98589.53
2022-12-01T11:12:05.589Z,98577.53
2022-12-01T11:14:55.097Z,98578.50
2022-12-01T11:17:32.277Z,98582.75
2022-12-01T11:20:29.761Z,98579.22
2022-12-01T11:23:22.174Z,98583.22
2022-12-01T11:26:17.175Z,98576.03
2022-12-01T11:29:13.748Z,98585.13
2022-12-01T11:31:50.816Z,98585.50
2022-12-01T11:34:35.327Z,98590.97
2022-12-01T11:37:09.422Z,98591.53
2022-12-01T11:39:41.780Z,98594.56
2022-12-01T11:42:32.364Z,98588.44
2022-12-01T11:45:26.095Z,98594.16
2022-12-01T11:48:09.430Z,98591.13
2022-12-01T11:50:41.355Z,98594.00
2022-12-01T11:53:41.717Z,98591.44
2022-12-01T11:56:30.058Z,98597.09
2022-12-01T11:59:16.206Z,98596.25
2022-12-01T12:02:07.298Z,98592.25
2022-12-01T12:05:03.587Z,98594.03
2022-12-01T12:08:06.882Z,98603.28
2022-12-01T12:10:46.430Z,98598.56
2022-12-01T12:13:18.867Z,98597.28
2022-12-01T12:16:25.338Z,98599.13
2022-12-01T12:19:03.595Z,98600.94
2022-12-01T12:21:38.523Z,98606.03
2022-12-01T12:24:24.790Z,98602.69
2022-12-01T12:27:24.558Z,98607.88
2022-12-01T12:29:59.888Z,98609.94
2022-12-01T12:32:38.014Z,98605.56
2022-12-01T12:35:23.248Z,98611.22
2022-12-01T12:37:59.815Z,98612.34
2022-12-01T12:40:54.583Z,98618.50
2022-12-01T12:43:57.089Z,98622.09
2022-12-01T12:46:48.053Z,98623.03
2022-12-01T12:49:43.657Z,98629.22
2022-12-01T12:52:27.826Z,98628.59
2022-12-01T12:55:29.921Z,98627.75
2022-12-01T12:58:21.739Z,98625.25
2022-12-01T13:01:28.286Z,98634.75
2022-12-01T13:04:05.742Z,98628.13
2022-12-01T13:06:53.412Z,98626.34
2022-12-01T13:09:37.495Z,98629.06
2022-12-01T13:12:11.347Z,98634.38
2022-12-01T13:15:16.732Z,98641.25
2022-12-01T13:18:14.954Z,98635.53
2022-12-01T13:20:47.715Z,98641.09
2022-12-01T13:23:22.183Z,98641.91
2022-12-01T13:25:56.644Z,98637.72
2022-12-01T13:28:30.631Z,98649.91
2022-12-01T13:31:21.495Z,98651.47
2022-12-01T13:34:01.123Z,98648.22
2022-12-01T13:36:46.854Z,98643.28
2022-12-01T13:39:37.359Z,98652.81
2022-12-01T13:42:25.076Z,98655.34
2022-12-01T13:45:03.184Z,98657.38
2022-12-01T13:47:54.003Z,98662.66
2022-12-01T13:50:45.010Z,98676.38
2022-12-01T13:53:34.551Z,98673.88
2022-12-01T13:56:19.277Z,98669.22
2022-12-01T13:58:52.473Z,98671.75
2022-12-01T14:01:22.298Z,98679.78
2022-12-01T14:04:02.494Z,98683.78
2022-12-01T14:06:40.067Z,98681.28
2022-12-01T14:09:21.874Z,98687.38
2022-12-01T14:12:25.461Z,98693.38
2022-12-01T14:15:05.630Z,98689.31
2022-12-01T14:17:39.283Z,98692.78
2022-12-01T14:20:22.744Z,98703.03
2022-12-01T14:23:10.478Z,98704.78
2022-12-01T14:25:40.838Z,98697.41
2022-12-01T14:28:51.699Z,98693.78
2022-12-01T14:31:21.227Z,98693.19
2022-12-01T14:34:13.211Z,98695.25
2022-12-01T14:36:55.501Z,98695.28
2022-12-01T14:39:35.438Z,98696.16
2022-12-01T14:42:35.369Z,98700.69
2022-12-01T14:45:07.307Z,98707.94
2022-12-01T14:47:47.919Z,98706.13
2022-12-01T14:50:25.114Z,98703.72
2022-12-01T14:53:07.684Z,98708.03
2022-12-01T14:55:44.425Z,98710.78
2022-12-01T14:58:28.023Z,98716.09
2022-12-01T15:01:05.407Z,98714.53
2022-12-01T15:03:52.090Z,98729.25
2022-12-01T15:06:25.073Z,98731.97
2022-12-01T15:09:35.845Z,98734.41
2022-12-01T15:12:10.843Z,98726.91
2022-12-01T15:14:49.755Z,98732.03
2022-12-01T15:17:46.342Z,98738.84
2022-12-01T15:20:35.844Z,98735.38
2022-12-01T15:23:25.684Z,98739.88
2022-12-01T15:25:58.002Z,98736.84
2022-12-01T15:28:35.639Z,98744.44
2022-12-01T15:31:12.751Z,98740.97
2022-12-01T15:33:54.676Z,98751.25
2022-12-01T15:36:25.339Z,98740.28
2022-12-01T15:38:55.768Z,98747.38
2022-12-01T15:41:30.224Z,98749.06
2022-12-01T15:44:06.589Z,98758.59
2022-12-01T15:46:45.831Z,98757.94
2022-12-01T15:49:30.409Z,98749.97
2022-12-01T15:52:11.899Z,98755.25
2022-12-01T15:54:42.022Z,98756.41
2022-12-01T15:57:19.921Z,98754.63
2022-12-01T15:59:55.735Z,98759.91
2022-12-01T16:02:33.261Z,98765.88
2022-12-01T16:05:33.676Z,98758.88
2022-12-01T16:08:19.780Z,98763.25
2022-12-01T16:11:19.791Z,98766.72
2022-12-01T16:14:09.091Z,98757.47
2022-12-01T16:16:44.478Z,98759.84
2022-12-01T16:19:13.888Z,98760.94
2022-12-01T16:21:48.932Z,98771.16
2022-12-01T16:24:22.483Z,98770.34
2022-12-01T16:27:05.106Z,98764.16
2022-12-01T16:30:21.909Z,98758.00
2022-12-01T16:32:52.992Z,98767.00
2022-12-01T16:35:31.714Z,98778.13
2022-12-01T16:38:18.322Z,98784.94
2022-12-01T16:40:52.368Z,98775.66
2022-12-01T16:43:30.160Z,98778.13
2022-12-01T16:46:04.981Z,98776.53
2022-12-01T16:48:37.291Z,98773.25
2022-12-01T16:51:08.983Z,98775.66
2022-12-01T16:53:39.291Z,98774.53
2022-12-01T16:56:14.239Z,98777.56
2022-12-01T16:58:46.039Z,98785.53
2022-12-01T17:01:15.686Z,98790.66
2022-12-01T17:03:44.966Z,98786.38
2022-12-01T17:06:20.245Z,98785.41
2022-12-01T17:08:50.115Z,98781.31
2022-12-01T17:11:19.964Z,98775.31
2022-12-01T17:13:49.377Z,98772.84
2022-12-01T17:16:19.051Z,98772.84
2022-12-01T17:18:48.671Z,98765.09
2022-12-01T17:21:18.096Z,98760.00
2022-12-01T17:23:47.728Z,98743.66
2022-12-01T17:26:19.613Z,98760.00
2022-12-01T17:28:49.637Z,98743.84
2022-12-01T17:31:19.132Z,98748.16
2022-12-01T17:33:48.701Z,98748.16
2022-12-01T17:36:18.297Z,98738.84
2022-12-01T17:38:48.967Z,98749.94
2022-12-01T17:41:25.841Z,98742.97
2022-12-01T17:43:55.471Z,98744.00
2022-12-01T17:46:24.820Z,98742.28
2022-12-01T17:48:54.746Z,98734.69
2022-12-01T17:51:24.080Z,98738.09
2022-12-01T17:53:55.667Z,98736.25
2022-12-01T17:56:25.208Z,98738.09
2022-12-01T17:58:54.978Z,98748.50
2022-12-01T18:01:29.967Z,98753.72
2022-12-01T18:04:00.238Z,98759.03
2022-12-01T18:06:29.794Z,98755.72
2022-12-01T18:09:01.553Z,98757.38
2022-12-01T18:11:31.206Z,98756.69
2022-12-01T18:14:01.763Z,98755.75
2022-12-01T18:16:33.573Z,98753.13
2022-12-01T18:19:03.294Z,98754.84
2022-12-01T18:21:36.081Z,98745.38
2022-12-01T18:24:06.776Z,98753.06
2022-12-01T18:26:37.607Z,98747.03
2022-12-01T18:29:08.648Z,98740.91
2022-12-01T18:31:39.205Z,98736.75
2022-12-01T18:34:11.368Z,98733.31
2022-12-01T18:36:42.734Z,98730.72
2022-12-01T18:39:13.179Z,98726.50
2022-12-01T18:41:43.256Z,98727.50
2022-12-01T18:44:12.917Z,98728.28
2022-12-01T18:46:42.622Z,98720.59
2022-12-01T18:49:13.487Z,98726.63
2022-12-01T18:51:43.320Z,98725.78
2022-12-01T18:54:15.830Z,98714.50
2022-12-01T18:56:45.241Z,98714.69
2022-12-01T18:59:18.060Z,98714.69
2022-12-01T19:01:49.534Z,98721.63
2022-12-01T19:04:19.659Z,98719.03
2022-12-01T19:06:49.136Z,98720.88
2022-12-01T19:09:18.859Z,98717.47
2022-12-01T19:11:48.508Z,98712.28
2022-12-01T19:14:21.938Z,98710.59
2022-12-01T19:16:52.619Z,98710.66
2022-12-01T19:19:22.893Z,98702.94
2022-12-01T19:21:52.680Z,98706.44
2022-12-01T19:24:24.896Z,98708.16
2022-12-01T19:26:54.601Z,98703.00
2022-12-01T19:29:26.091Z,98713.34
2022-12-01T19:31:56.637Z,98715.16
2022-12-01T19:34:27.508Z,98715.19
2022-12-01T19:36:58.072Z,98718.78
2022-12-01T19:39:28.360Z,98708.50
2022-12-01T19:42:02.718Z,98708.34
2022-12-01T19:44:35.193Z,98705.06
2022-12-01T19:47:05.541Z,98707.63
2022-12-01T19:49:35.692Z,98713.63
2022-12-01T19:52:07.779Z,98710.09
2022-12-01T19:54:38.963Z,98698.97
2022-12-01T19:57:08.517Z,98706.69
2022-12-01T19:59:41.230Z,98705.78
2022-12-01T20:02:11.243Z,98702.09
2022-12-01T20:04:41.372Z,98701.59
2022-12-01T20:07:10.717Z,98698.22
2022-12-01T20:09:44.431Z,98703.38
2022-12-01T20:12:18.047Z,98710.25
2022-12-01T20:14:49.352Z,98703.38
2022-12-01T20:17:20.167Z,98699.09
2022-12-01T20:19:50.643Z,98705.09
2022-12-01T20:22:23.829Z,98705.06
2022-12-01T20:24:57.183Z,98699.91
2022-12-01T20:27:26.660Z,98707.63
2022-12-01T20:29:57.362Z,98702.47
2022-12-01T20:32:26.840Z,98705.16
2022-12-01T20:34:58.778Z,98710.31
2022-12-01T20:37:28.597Z,98708.69
2022-12-01T20:40:01.945Z,98707.00
2022-12-01T20:42:32.404Z,98701.81
2022-12-01T20:45:07.063Z,98692.38
2022-12-01T20:47:41.515Z,98699.31
2022-12-01T20:50:11.604Z,98701.06
2022-12-01T20:52:42.768Z,98699.38
2022-12-01T20:55:13.745Z,98704.59
2022-12-01T20:57:43.613Z,98702.03
2022-12-01T21:00:14.680Z,98690.00
2022-12-01T21:02:44.956Z,98693.50
2022-12-01T21:05:15.586Z,98691.81
2022-12-01T21:07:45.361Z,98697.78
2022-12-01T21:10:19.812Z,98692.63
2022-12-01T21:13:13.028Z,98702.81
2022-12-01T21:16:00.101Z,98688.97
2022-12-01T21:18:51.930Z,98695.00
2022-12-01T21:21:33.279Z,98701.94
2022-12-01T21:24:17.996Z,98683.84
2022-12-01T21:26:50.570Z,98679.59
2022-12-01T21:29:28.875Z,98676.13
2022-12-01T21:32:02.174Z,98672.69
2022-12-01T21:34:35.145Z,98673.66
2022-12-01T21:37:14.383Z,98688.13
2022-12-01T21:39:43.867Z,98684.84
2022-12-01T21:42:20.612Z,98685.63
2022-12-01T21:44:51.069Z,98690.06
2022-12-01T21:47:24.722Z,98683.16
2022-12-01T22:51:49.243Z,98672.91
2022-12-01T22:54:18.299Z,98669.72
2022-12-01T22:56:51.273Z,98678.28
2022-12-01T22:59:24.667Z,98672.16
2022-12-01T23:01:56.844Z,98667.09
2022-12-01T23:04:32.247Z,98661.13
2022-12-01T23:07:05.245Z,98663.75
2022-12-01T23:09:44.948Z,98670.56
2022-12-01T23:12:14.542Z,98676.75
2022-12-01T23:14:47.803Z,98671.47
2022-12-01T23:17:31.865Z,98677.41
2022-12-01T23:20:26.775Z,98680.06
2022-12-01T23:22:57.144Z,98678.47
2022-12-01T23:25:28.276Z,98679.38
2022-12-01T23:28:01.742Z,98674.94
2022-12-01T23:30:30.839Z,98677.66
2022-12-01T23:33:05.899Z,98668.16
2022-12-01T23:35:53.094Z,98672.41
2022-12-01T23:38:30.797Z,98674.94
2022-12-01T23:41:05.609Z,98682.81
2022-12-01T23:43:39.855Z,98683.66
2022-12-01T23:46:13.506Z,98676.75
2022-12-01T23:48:46.398Z,98680.25
2022-12-01T23:51:38.068Z,98664.63
2022-12-01T23:54:25.283Z,98679.25
2022-12-01T23:56:58.295Z,98680.13
2022-12-01T23:59:28.868Z,98676.00
